sensor_id;sensor_type;location;lat;lon;timestamp;P1;durP1;ratioP1;P2;durP2;ratioP2
12760;SDS011;6444;49.742;6.114;2023-01-29T00:01:04;19.23;;;12.87;;
12760;SDS011;6444;49.742;6.114;2023-01-29T00:03:30;20.13;;;12.97;;
12760;SDS011;6444;49.742;6.114;2023-01-29T00:05:57;20.53;;;14.03;;
12760;SDS011;6444;49.742;6.114;2023-01-29T00:08:23;22.40;;;13.67;;
12760;SDS011;6444;49.742;6.114;2023-01-29T00:10:50;21.10;;;14.20;;
12760;SDS011;6444;49.742;6.114;2023-01-29T00:13:17;25.63;;;15.10;;
12760;SDS011;6444;49.742;6.114;2023-01-29T00:15:54;23.43;;;14.50;;
12760;SDS011;6444;49.742;6.114;2023-01-29T00:18:20;25.20;;;15.20;;
12760;SDS011;6444;49.742;6.114;2023-01-29T00:20:47;23.47;;;14.67;;
12760;SDS011;6444;49.742;6.114;2023-01-29T00:23:14;20.83;;;14.30;;
12760;SDS011;6444;49.742;6.114;2023-01-29T00:25:40;24.50;;;15.37;;
12760;SDS011;6444;49.742;6.114;2023-01-29T00:28:08;24.17;;;15.17;;
12760;SDS011;6444;49.742;6.114;2023-01-29T00:30:34;24.20;;;14.70;;
12760;SDS011;6444;49.742;6.114;2023-01-29T00:33:01;23.30;;;15.53;;
12760;SDS011;6444;49.742;6.114;2023-01-29T00:35:27;26.20;;;16.40;;
12760;SDS011;6444;49.742;6.114;2023-01-29T00:37:54;25.77;;;15.87;;
12760;SDS011;6444;49.742;6.114;2023-01-29T00:40:21;20.63;;;13.03;;
12760;SDS011;6444;49.742;6.114;2023-01-29T00:42:48;22.87;;;13.40;;
12760;SDS011;6444;49.742;6.114;2023-01-29T00:45:33;23.33;;;14.57;;
12760;SDS011;6444;49.742;6.114;2023-01-29T00:47:59;21.77;;;14.30;;
12760;SDS011;6444;49.742;6.114;2023-01-29T00:50:26;22.67;;;15.23;;
12760;SDS011;6444;49.742;6.114;2023-01-29T00:52:53;21.90;;;14.17;;
12760;SDS011;6444;49.742;6.114;2023-01-29T00:55:19;22.93;;;13.30;;
12760;SDS011;6444;49.742;6.114;2023-01-29T00:57:46;20.03;;;12.80;;
12760;SDS011;6444;49.742;6.114;2023-01-29T01:00:14;23.30;;;14.97;;
12760;SDS011;6444;49.742;6.114;2023-01-29T01:02:39;19.90;;;13.70;;
12760;SDS011;6444;49.742;6.114;2023-01-29T01:05:24;23.20;;;15.23;;
12760;SDS011;6444;49.742;6.114;2023-01-29T01:07:51;24.50;;;16.20;;
12760;SDS011;6444;49.742;6.114;2023-01-29T01:10:28;23.57;;;14.90;;
12760;SDS011;6444;49.742;6.114;2023-01-29T01:12:59;21.77;;;13.80;;
12760;SDS011;6444;49.742;6.114;2023-01-29T01:15:26;25.27;;;19.77;;
12760;SDS011;6444;49.742;6.114;2023-01-29T01:17:56;20.43;;;15.10;;
12760;SDS011;6444;49.742;6.114;2023-01-29T01:20:22;22.17;;;14.67;;
12760;SDS011;6444;49.742;6.114;2023-01-29T01:22:48;22.27;;;13.93;;
12760;SDS011;6444;49.742;6.114;2023-01-29T01:25:15;22.80;;;13.97;;
12760;SDS011;6444;49.742;6.114;2023-01-29T01:27:41;25.27;;;19.55;;
12760;SDS011;6444;49.742;6.114;2023-01-29T01:30:12;23.37;;;16.03;;
12760;SDS011;6444;49.742;6.114;2023-01-29T01:32:35;23.27;;;15.50;;
12760;SDS011;6444;49.742;6.114;2023-01-29T01:35:01;27.83;;;21.30;;
12760;SDS011;6444;49.742;6.114;2023-01-29T01:37:28;25.98;;;21.35;;
12760;SDS011;6444;49.742;6.114;2023-01-29T01:39:55;22.40;;;16.23;;
12760;SDS011;6444;49.742;6.114;2023-01-29T01:42:21;24.03;;;15.60;;
12760;SDS011;6444;49.742;6.114;2023-01-29T01:45:34;21.30;;;14.67;;
12760;SDS011;6444;49.742;6.114;2023-01-29T01:47:32;26.33;;;20.70;;
12760;SDS011;6444;49.742;6.114;2023-01-29T01:49:58;26.60;;;17.70;;
12760;SDS011;6444;49.742;6.114;2023-01-29T01:52:23;22.37;;;14.90;;
12760;SDS011;6444;49.742;6.114;2023-01-29T01:54:49;25.10;;;15.70;;
12760;SDS011;6444;49.742;6.114;2023-01-29T01:57:17;21.93;;;15.10;;
12760;SDS011;6444;49.742;6.114;2023-01-29T01:59:47;22.97;;;13.73;;
12760;SDS011;6444;49.742;6.114;2023-01-29T02:02:13;22.00;;;14.30;;
12760;SDS011;6444;49.742;6.114;2023-01-29T02:04:57;19.07;;;14.27;;
12760;SDS011;6444;49.742;6.114;2023-01-29T02:07:42;22.57;;;14.47;;
12760;SDS011;6444;49.742;6.114;2023-01-29T02:10:26;21.17;;;13.60;;
12760;SDS011;6444;49.742;6.114;2023-01-29T02:12:53;22.90;;;13.97;;
12760;SDS011;6444;49.742;6.114;2023-01-29T02:15:20;19.77;;;13.13;;
12760;SDS011;6444;49.742;6.114;2023-01-29T02:17:46;19.53;;;13.00;;
12760;SDS011;6444;49.742;6.114;2023-01-29T02:20:26;19.27;;;13.33;;
12760;SDS011;6444;49.742;6.114;2023-01-29T02:23:13;18.37;;;12.50;;
12760;SDS011;6444;49.742;6.114;2023-01-29T02:33:47;19.40;;;12.67;;
12760;SDS011;6444;49.742;6.114;2023-01-29T02:36:26;20.40;;;13.93;;
12760;SDS011;6444;49.742;6.114;2023-01-29T02:38:56;18.63;;;12.77;;
12760;SDS011;6444;49.742;6.114;2023-01-29T02:41:40;20.33;;;13.40;;
12760;SDS011;6444;49.742;6.114;2023-01-29T02:44:05;22.47;;;13.47;;
12760;SDS011;6444;49.742;6.114;2023-01-29T02:46:32;22.13;;;13.43;;
12760;SDS011;6444;49.742;6.114;2023-01-29T02:51:49;20.23;;;14.93;;
12760;SDS011;6444;49.742;6.114;2023-01-29T02:54:19;24.00;;;15.83;;
12760;SDS011;6444;49.742;6.114;2023-01-29T02:56:53;23.80;;;15.27;;
12760;SDS011;6444;49.742;6.114;2023-01-29T02:59:21;22.70;;;14.43;;
12760;SDS011;6444;49.742;6.114;2023-01-29T03:01:50;20.80;;;14.70;;
12760;SDS011;6444;49.742;6.114;2023-01-29T03:04:18;18.60;;;13.60;;
12760;SDS011;6444;49.742;6.114;2023-01-29T03:06:44;26.52;;;21.15;;
12760;SDS011;6444;49.742;6.114;2023-01-29T03:09:25;22.40;;;16.37;;
12760;SDS011;6444;49.742;6.114;2023-01-29T03:12:14;20.67;;;14.00;;
12760;SDS011;6444;49.742;6.114;2023-01-29T03:14:36;21.57;;;14.40;;
12760;SDS011;6444;49.742;6.114;2023-01-29T03:17:21;22.57;;;14.43;;
12760;SDS011;6444;49.742;6.114;2023-01-29T03:19:47;19.03;;;13.30;;
12760;SDS011;6444;49.742;6.114;2023-01-29T03:22:14;22.33;;;14.67;;
12760;SDS011;6444;49.742;6.114;2023-01-29T03:24:41;23.77;;;14.43;;
12760;SDS011;6444;49.742;6.114;2023-01-29T03:27:26;23.80;;;14.60;;
12760;SDS011;6444;49.742;6.114;2023-01-29T03:30:10;22.40;;;14.63;;
12760;SDS011;6444;49.742;6.114;2023-01-29T03:32:55;21.63;;;14.07;;
12760;SDS011;6444;49.742;6.114;2023-01-29T03:35:22;22.07;;;14.77;;
12760;SDS011;6444;49.742;6.114;2023-01-29T03:37:49;24.73;;;16.37;;
12760;SDS011;6444;49.742;6.114;2023-01-29T03:40:16;24.07;;;14.70;;
12760;SDS011;6444;49.742;6.114;2023-01-29T03:46:13;24.20;;;15.70;;
12760;SDS011;6444;49.742;6.114;2023-01-29T03:51:00;19.47;;;14.03;;
12760;SDS011;6444;49.742;6.114;2023-01-29T03:56:06;22.13;;;14.20;;
12760;SDS011;6444;49.742;6.114;2023-01-29T03:58:41;22.07;;;14.57;;
12760;SDS011;6444;49.742;6.114;2023-01-29T04:01:16;25.63;;;15.73;;
12760;SDS011;6444;49.742;6.114;2023-01-29T04:03:45;24.00;;;16.63;;
12760;SDS011;6444;49.742;6.114;2023-01-29T04:06:15;25.97;;;15.97;;
12760;SDS011;6444;49.742;6.114;2023-01-29T04:08:46;24.03;;;15.20;;
12760;SDS011;6444;49.742;6.114;2023-01-29T04:11:14;25.87;;;20.73;;
12760;SDS011;6444;49.742;6.114;2023-01-29T04:13:40;24.67;;;19.42;;
12760;SDS011;6444;49.742;6.114;2023-01-29T04:16:08;24.97;;;17.07;;
12760;SDS011;6444;49.742;6.114;2023-01-29T04:18:33;23.70;;;16.00;;
12760;SDS011;6444;49.742;6.114;2023-01-29T04:21:01;22.20;;;14.60;;
12760;SDS011;6444;49.742;6.114;2023-01-29T04:23:27;21.30;;;14.00;;
12760;SDS011;6444;49.742;6.114;2023-01-29T04:25:59;22.83;;;14.13;;
12760;SDS011;6444;49.742;6.114;2023-01-29T04:28:36;23.33;;;15.20;;
12760;SDS011;6444;49.742;6.114;2023-01-29T04:30:57;21.80;;;14.27;;
12760;SDS011;6444;49.742;6.114;2023-01-29T04:41:54;24.47;;;16.40;;
12760;SDS011;6444;49.742;6.114;2023-01-29T04:44:21;24.10;;;15.90;;
12760;SDS011;6444;49.742;6.114;2023-01-29T04:49:55;25.90;;;17.57;;
12760;SDS011;6444;49.742;6.114;2023-01-29T04:55:21;24.00;;;15.70;;
12760;SDS011;6444;49.742;6.114;2023-01-29T05:02:53;28.05;;;21.65;;
12760;SDS011;6444;49.742;6.114;2023-01-29T05:05:20;23.63;;;16.43;;
12760;SDS011;6444;49.742;6.114;2023-01-29T05:07:47;26.80;;;17.50;;
12760;SDS011;6444;49.742;6.114;2023-01-29T05:10:13;24.73;;;16.07;;
12760;SDS011;6444;49.742;6.114;2023-01-29T05:12:40;22.27;;;15.40;;
12760;SDS011;6444;49.742;6.114;2023-01-29T05:15:08;23.47;;;15.83;;
12760;SDS011;6444;49.742;6.114;2023-01-29T05:17:33;24.13;;;15.10;;
12760;SDS011;6444;49.742;6.114;2023-01-29T05:20:00;25.73;;;15.80;;
12760;SDS011;6444;49.742;6.114;2023-01-29T05:22:27;24.97;;;15.40;;
12760;SDS011;6444;49.742;6.114;2023-01-29T05:24:54;23.80;;;15.50;;
12760;SDS011;6444;49.742;6.114;2023-01-29T05:27:27;26.83;;;16.23;;
12760;SDS011;6444;49.742;6.114;2023-01-29T05:30:08;22.37;;;15.17;;
12760;SDS011;6444;49.742;6.114;2023-01-29T05:32:35;23.67;;;14.87;;
12760;SDS011;6444;49.742;6.114;2023-01-29T05:35:02;26.60;;;15.97;;
12760;SDS011;6444;49.742;6.114;2023-01-29T05:37:28;25.53;;;16.07;;
12760;SDS011;6444;49.742;6.114;2023-01-29T05:39:56;26.20;;;15.93;;
12760;SDS011;6444;49.742;6.114;2023-01-29T05:42:22;24.63;;;15.67;;
12760;SDS011;6444;49.742;6.114;2023-01-29T05:44:49;28.80;;;17.77;;
12760;SDS011;6444;49.742;6.114;2023-01-29T05:47:19;27.70;;;17.00;;
12760;SDS011;6444;49.742;6.114;2023-01-29T05:49:45;28.57;;;17.77;;
12760;SDS011;6444;49.742;6.114;2023-01-29T05:52:12;26.03;;;16.77;;
12760;SDS011;6444;49.742;6.114;2023-01-29T05:54:38;29.60;;;17.17;;
12760;SDS011;6444;49.742;6.114;2023-01-29T05:57:06;28.70;;;17.27;;
12760;SDS011;6444;49.742;6.114;2023-01-29T05:59:32;28.63;;;17.93;;
12760;SDS011;6444;49.742;6.114;2023-01-29T06:01:59;28.30;;;16.83;;
12760;SDS011;6444;49.742;6.114;2023-01-29T06:04:26;27.93;;;17.50;;
12760;SDS011;6444;49.742;6.114;2023-01-29T06:06:52;30.80;;;18.30;;
12760;SDS011;6444;49.742;6.114;2023-01-29T06:09:19;31.60;;;19.33;;
12760;SDS011;6444;49.742;6.114;2023-01-29T06:11:45;32.73;;;18.67;;
12760;SDS011;6444;49.742;6.114;2023-01-29T06:14:12;31.37;;;18.20;;
12760;SDS011;6444;49.742;6.114;2023-01-29T06:16:39;33.67;;;18.97;;
12760;SDS011;6444;49.742;6.114;2023-01-29T06:19:05;33.70;;;18.80;;
12760;SDS011;6444;49.742;6.114;2023-01-29T06:21:32;31.23;;;18.30;;
12760;SDS011;6444;49.742;6.114;2023-01-29T06:23:59;34.75;;;25.17;;
12760;SDS011;6444;49.742;6.114;2023-01-29T06:26:25;33.53;;;20.47;;
12760;SDS011;6444;49.742;6.114;2023-01-29T06:28:52;31.97;;;19.70;;
12760;SDS011;6444;49.742;6.114;2023-01-29T06:31:18;28.03;;;17.57;;
12760;SDS011;6444;49.742;6.114;2023-01-29T06:33:45;30.60;;;18.60;;
12760;SDS011;6444;49.742;6.114;2023-01-29T06:36:12;26.17;;;16.53;;
12760;SDS011;6444;49.742;6.114;2023-01-29T06:38:38;30.00;;;16.70;;
12760;SDS011;6444;49.742;6.114;2023-01-29T06:41:09;29.23;;;16.50;;
12760;SDS011;6444;49.742;6.114;2023-01-29T06:43:35;29.80;;;17.60;;
12760;SDS011;6444;49.742;6.114;2023-01-29T06:46:01;28.10;;;17.80;;
12760;SDS011;6444;49.742;6.114;2023-01-29T06:48:28;31.10;;;17.80;;
12760;SDS011;6444;49.742;6.114;2023-01-29T06:50:55;35.95;;;25.35;;
12760;SDS011;6444;49.742;6.114;2023-01-29T06:53:21;30.47;;;19.37;;
12760;SDS011;6444;49.742;6.114;2023-01-29T06:55:51;36.35;;;26.00;;
12760;SDS011;6444;49.742;6.114;2023-01-29T06:58:18;29.37;;;19.13;;
12760;SDS011;6444;49.742;6.114;2023-01-29T07:00:44;32.50;;;20.07;;
12760;SDS011;6444;49.742;6.114;2023-01-29T07:03:11;30.27;;;18.57;;
12760;SDS011;6444;49.742;6.114;2023-01-29T07:05:38;31.00;;;18.00;;
12760;SDS011;6444;49.742;6.114;2023-01-29T07:08:05;32.40;;;19.33;;
12760;SDS011;6444;49.742;6.114;2023-01-29T07:10:31;32.13;;;18.17;;
12760;SDS011;6444;49.742;6.114;2023-01-29T07:12:58;32.73;;;18.33;;
12760;SDS011;6444;49.742;6.114;2023-01-29T07:15:26;33.50;;;20.50;;
12760;SDS011;6444;49.742;6.114;2023-01-29T07:20:23;34.60;;;18.87;;
12760;SDS011;6444;49.742;6.114;2023-01-29T07:22:48;32.27;;;19.27;;
12760;SDS011;6444;49.742;6.114;2023-01-29T07:25:16;32.57;;;19.47;;
12760;SDS011;6444;49.742;6.114;2023-01-29T07:27:42;32.93;;;19.27;;
12760;SDS011;6444;49.742;6.114;2023-01-29T07:30:09;35.07;;;20.50;;
12760;SDS011;6444;49.742;6.114;2023-01-29T07:32:36;32.50;;;19.70;;
12760;SDS011;6444;49.742;6.114;2023-01-29T07:35:02;33.20;;;18.53;;
12760;SDS011;6444;49.742;6.114;2023-01-29T07:37:29;29.67;;;17.80;;
12760;SDS011;6444;49.742;6.114;2023-01-29T07:39:56;30.80;;;17.63;;
12760;SDS011;6444;49.742;6.114;2023-01-29T07:42:23;36.57;;;20.17;;
12760;SDS011;6444;49.742;6.114;2023-01-29T07:44:50;33.00;;;19.20;;
12760;SDS011;6444;49.742;6.114;2023-01-29T07:47:16;32.47;;;18.83;;
12760;SDS011;6444;49.742;6.114;2023-01-29T07:49:43;31.53;;;18.17;;
12760;SDS011;6444;49.742;6.114;2023-01-29T07:52:10;33.77;;;19.20;;
12760;SDS011;6444;49.742;6.114;2023-01-29T07:54:37;37.77;;;21.50;;
12760;SDS011;6444;49.742;6.114;2023-01-29T07:57:07;32.57;;;18.80;;
12760;SDS011;6444;49.742;6.114;2023-01-29T07:59:33;57.60;;;35.57;;
12760;SDS011;6444;49.742;6.114;2023-01-29T08:02:00;43.53;;;28.07;;
12760;SDS011;6444;49.742;6.114;2023-01-29T08:04:26;36.50;;;20.13;;
12760;SDS011;6444;49.742;6.114;2023-01-29T08:06:53;47.85;;;33.40;;
12760;SDS011;6444;49.742;6.114;2023-01-29T08:09:20;60.30;;;37.33;;
12760;SDS011;6444;49.742;6.114;2023-01-29T08:11:46;160.83;;;111.93;;
12760;SDS011;6444;49.742;6.114;2023-01-29T08:14:13;75.40;;;51.87;;
12760;SDS011;6444;49.742;6.114;2023-01-29T08:16:40;43.17;;;25.20;;
12760;SDS011;6444;49.742;6.114;2023-01-29T08:19:07;38.33;;;22.37;;
12760;SDS011;6444;49.742;6.114;2023-01-29T08:21:34;33.93;;;20.73;;
12760;SDS011;6444;49.742;6.114;2023-01-29T08:24:00;40.50;;;25.67;;
12760;SDS011;6444;49.742;6.114;2023-01-29T08:26:27;40.00;;;24.13;;
12760;SDS011;6444;49.742;6.114;2023-01-29T08:28:53;37.30;;;21.43;;
12760;SDS011;6444;49.742;6.114;2023-01-29T08:31:21;36.47;;;22.57;;
12760;SDS011;6444;49.742;6.114;2023-01-29T08:33:47;41.00;;;22.17;;
12760;SDS011;6444;49.742;6.114;2023-01-29T08:36:14;38.87;;;21.93;;
12760;SDS011;6444;49.742;6.114;2023-01-29T08:38:41;42.33;;;23.27;;
12760;SDS011;6444;49.742;6.114;2023-01-29T08:41:07;42.00;;;23.43;;
12760;SDS011;6444;49.742;6.114;2023-01-29T08:43:35;41.27;;;22.60;;
12760;SDS011;6444;49.742;6.114;2023-01-29T08:46:05;40.70;;;22.97;;
12760;SDS011;6444;49.742;6.114;2023-01-29T08:48:31;36.33;;;21.80;;
12760;SDS011;6444;49.742;6.114;2023-01-29T08:50:58;38.17;;;22.13;;
12760;SDS011;6444;49.742;6.114;2023-01-29T08:53:24;37.57;;;21.80;;
12760;SDS011;6444;49.742;6.114;2023-01-29T08:55:51;35.53;;;21.20;;
12760;SDS011;6444;49.742;6.114;2023-01-29T08:58:18;35.73;;;21.17;;
12760;SDS011;6444;49.742;6.114;2023-01-29T09:00:45;40.03;;;23.13;;
12760;SDS011;6444;49.742;6.114;2023-01-29T09:03:11;41.17;;;23.47;;
12760;SDS011;6444;49.742;6.114;2023-01-29T09:05:38;39.20;;;23.63;;
12760;SDS011;6444;49.742;6.114;2023-01-29T09:08:05;41.27;;;23.37;;
12760;SDS011;6444;49.742;6.114;2023-01-29T09:10:32;41.37;;;23.33;;
12760;SDS011;6444;49.742;6.114;2023-01-29T09:12:59;40.07;;;22.87;;
12760;SDS011;6444;49.742;6.114;2023-01-29T09:15:25;39.07;;;22.73;;
12760;SDS011;6444;49.742;6.114;2023-01-29T09:17:52;42.10;;;25.57;;
12760;SDS011;6444;49.742;6.114;2023-01-29T09:20:19;43.07;;;24.23;;
12760;SDS011;6444;49.742;6.114;2023-01-29T09:22:45;38.47;;;22.73;;
12760;SDS011;6444;49.742;6.114;2023-01-29T09:25:12;39.83;;;22.93;;
12760;SDS011;6444;49.742;6.114;2023-01-29T09:27:39;42.40;;;23.43;;
12760;SDS011;6444;49.742;6.114;2023-01-29T09:30:05;40.47;;;22.87;;
12760;SDS011;6444;49.742;6.114;2023-01-29T09:32:35;57.70;;;30.90;;
12760;SDS011;6444;49.742;6.114;2023-01-29T09:35:02;43.50;;;25.30;;
12760;SDS011;6444;49.742;6.114;2023-01-29T09:37:29;39.60;;;22.87;;
12760;SDS011;6444;49.742;6.114;2023-01-29T09:39:56;48.53;;;27.20;;
12760;SDS011;6444;49.742;6.114;2023-01-29T09:42:30;41.47;;;23.87;;
12760;SDS011;6444;49.742;6.114;2023-01-29T09:45:11;40.47;;;22.33;;
12760;SDS011;6444;49.742;6.114;2023-01-29T09:47:39;41.87;;;23.47;;
12760;SDS011;6444;49.742;6.114;2023-01-29T09:52:55;35.57;;;21.90;;
12760;SDS011;6444;49.742;6.114;2023-01-29T09:55:24;39.37;;;23.93;;
12760;SDS011;6444;49.742;6.114;2023-01-29T09:57:59;41.37;;;25.50;;
12760;SDS011;6444;49.742;6.114;2023-01-29T10:00:28;40.80;;;24.67;;
12760;SDS011;6444;49.742;6.114;2023-01-29T10:03:11;40.38;;;29.50;;
12760;SDS011;6444;49.742;6.114;2023-01-29T10:08:28;35.13;;;24.60;;
12760;SDS011;6444;49.742;6.114;2023-01-29T10:10:58;41.77;;;25.70;;
12760;SDS011;6444;49.742;6.114;2023-01-29T10:13:28;41.37;;;25.93;;
12760;SDS011;6444;49.742;6.114;2023-01-29T10:23:37;39.40;;;25.27;;
12760;SDS011;6444;49.742;6.114;2023-01-29T10:26:03;46.00;;;34.63;;
12760;SDS011;6444;49.742;6.114;2023-01-29T10:28:33;37.97;;;24.83;;
12760;SDS011;6444;49.742;6.114;2023-01-29T10:31:03;37.60;;;22.97;;
12760;SDS011;6444;49.742;6.114;2023-01-29T10:33:28;39.03;;;25.03;;
12760;SDS011;6444;49.742;6.114;2023-01-29T10:35:54;70.87;;;42.83;;
12760;SDS011;6444;49.742;6.114;2023-01-29T10:38:39;75.07;;;45.37;;
12760;SDS011;6444;49.742;6.114;2023-01-29T10:43:48;36.57;;;21.87;;
12760;SDS011;6444;49.742;6.114;2023-01-29T10:46:13;36.87;;;22.47;;
12760;SDS011;6444;49.742;6.114;2023-01-29T10:59:36;66.03;;;46.90;;
12760;SDS011;6444;49.742;6.114;2023-01-29T11:02:19;75.03;;;49.13;;
12760;SDS011;6444;49.742;6.114;2023-01-29T11:04:45;74.63;;;43.67;;
12760;SDS011;6444;49.742;6.114;2023-01-29T11:07:13;56.83;;;36.20;;
12760;SDS011;6444;49.742;6.114;2023-01-29T11:12:30;56.53;;;35.13;;
12760;SDS011;6444;49.742;6.114;2023-01-29T11:14:59;40.33;;;25.60;;
12760;SDS011;6444;49.742;6.114;2023-01-29T11:20:33;42.83;;;25.87;;
12760;SDS011;6444;49.742;6.114;2023-01-29T11:23:00;34.97;;;23.27;;
12760;SDS011;6444;49.742;6.114;2023-01-29T11:25:27;37.60;;;23.10;;
12760;SDS011;6444;49.742;6.114;2023-01-29T11:27:57;36.70;;;22.60;;
12760;SDS011;6444;49.742;6.114;2023-01-29T11:30:26;38.37;;;24.53;;
12760;SDS011;6444;49.742;6.114;2023-01-29T11:35:31;33.33;;;21.77;;
12760;SDS011;6444;49.742;6.114;2023-01-29T11:38:12;39.87;;;25.50;;
12760;SDS011;6444;49.742;6.114;2023-01-29T11:40:35;41.10;;;25.07;;
12760;SDS011;6444;49.742;6.114;2023-01-29T11:43:20;39.03;;;25.00;;
12760;SDS011;6444;49.742;6.114;2023-01-29T11:45:47;35.23;;;21.83;;
12760;SDS011;6444;49.742;6.114;2023-01-29T11:48:16;36.87;;;22.37;;
12760;SDS011;6444;49.742;6.114;2023-01-29T11:50:42;40.23;;;24.57;;
12760;SDS011;6444;49.742;6.114;2023-01-29T11:53:32;37.63;;;24.03;;
12760;SDS011;6444;49.742;6.114;2023-01-29T11:55:59;34.03;;;22.60;;
12760;SDS011;6444;49.742;6.114;2023-01-29T11:58:29;32.10;;;21.53;;
12760;SDS011;6444;49.742;6.114;2023-01-29T12:00:55;33.83;;;21.27;;
12760;SDS011;6444;49.742;6.114;2023-01-29T12:03:27;33.83;;;21.13;;
12760;SDS011;6444;49.742;6.114;2023-01-29T12:05:58;36.23;;;22.57;;
12760;SDS011;6444;49.742;6.114;2023-01-29T12:08:24;36.77;;;23.70;;
12760;SDS011;6444;49.742;6.114;2023-01-29T12:10:51;36.00;;;23.10;;
12760;SDS011;6444;49.742;6.114;2023-01-29T12:13:20;32.60;;;21.37;;
12760;SDS011;6444;49.742;6.114;2023-01-29T12:16:04;34.37;;;22.07;;
12760;SDS011;6444;49.742;6.114;2023-01-29T12:18:41;36.67;;;29.12;;
12760;SDS011;6444;49.742;6.114;2023-01-29T12:21:14;36.90;;;24.43;;
12760;SDS011;6444;49.742;6.114;2023-01-29T12:23:43;36.45;;;28.30;;
12760;SDS011;6444;49.742;6.114;2023-01-29T12:32:06;35.10;;;22.37;;
12760;SDS011;6444;49.742;6.114;2023-01-29T12:34:32;35.70;;;22.17;;
12760;SDS011;6444;49.742;6.114;2023-01-29T12:39:57;32.70;;;20.97;;
12760;SDS011;6444;49.742;6.114;2023-01-29T12:42:24;35.93;;;21.67;;
12760;SDS011;6444;49.742;6.114;2023-01-29T12:44:57;31.77;;;21.00;;
12760;SDS011;6444;49.742;6.114;2023-01-29T12:47:37;38.40;;;28.40;;
12760;SDS011;6444;49.742;6.114;2023-01-29T12:50:01;32.03;;;22.13;;
12760;SDS011;6444;49.742;6.114;2023-01-29T12:55:12;35.63;;;22.30;;
12760;SDS011;6444;49.742;6.114;2023-01-29T13:00:13;36.40;;;21.30;;
12760;SDS011;6444;49.742;6.114;2023-01-29T13:07:59;35.50;;;21.23;;
12760;SDS011;6444;49.742;6.114;2023-01-29T13:10:25;33.00;;;20.17;;
12760;SDS011;6444;49.742;6.114;2023-01-29T13:12:52;31.00;;;18.87;;
12760;SDS011;6444;49.742;6.114;2023-01-29T13:15:21;34.97;;;20.33;;
12760;SDS011;6444;49.742;6.114;2023-01-29T13:17:53;33.67;;;19.80;;
12760;SDS011;6444;49.742;6.114;2023-01-29T13:20:23;33.20;;;21.07;;
12760;SDS011;6444;49.742;6.114;2023-01-29T13:22:48;34.90;;;20.67;;
12760;SDS011;6444;49.742;6.114;2023-01-29T13:25:16;35.00;;;21.03;;
12760;SDS011;6444;49.742;6.114;2023-01-29T13:27:41;32.60;;;21.00;;
12760;SDS011;6444;49.742;6.114;2023-01-29T13:30:22;31.57;;;20.03;;
12760;SDS011;6444;49.742;6.114;2023-01-29T13:32:35;33.20;;;21.53;;
12760;SDS011;6444;49.742;6.114;2023-01-29T13:35:02;32.67;;;20.60;;
12760;SDS011;6444;49.742;6.114;2023-01-29T13:37:32;31.27;;;20.33;;
12760;SDS011;6444;49.742;6.114;2023-01-29T13:39:58;32.97;;;20.97;;
12760;SDS011;6444;49.742;6.114;2023-01-29T13:42:44;36.23;;;21.43;;
12760;SDS011;6444;49.742;6.114;2023-01-29T13:45:16;32.43;;;20.60;;
12760;SDS011;6444;49.742;6.114;2023-01-29T13:47:36;44.83;;;25.93;;
12760;SDS011;6444;49.742;6.114;2023-01-29T13:52:54;40.47;;;21.93;;
12760;SDS011;6444;49.742;6.114;2023-01-29T13:55:21;36.63;;;21.13;;
12760;SDS011;6444;49.742;6.114;2023-01-29T13:57:53;45.28;;;31.08;;
12760;SDS011;6444;49.742;6.114;2023-01-29T14:07:59;39.93;;;24.87;;
12760;SDS011;6444;49.742;6.114;2023-01-29T14:10:26;41.27;;;23.77;;
12760;SDS011;6444;49.742;6.114;2023-01-29T14:12:55;43.23;;;24.20;;
12760;SDS011;6444;49.742;6.114;2023-01-29T14:15:22;35.20;;;21.27;;
12760;SDS011;6444;49.742;6.114;2023-01-29T14:17:55;35.93;;;21.73;;
12760;SDS011;6444;49.742;6.114;2023-01-29T14:20:34;39.77;;;23.00;;
12760;SDS011;6444;49.742;6.114;2023-01-29T14:22:56;40.63;;;29.12;;
12760;SDS011;6444;49.742;6.114;2023-01-29T14:25:27;38.60;;;24.03;;
12760;SDS011;6444;49.742;6.114;2023-01-29T14:27:49;39.13;;;22.90;;
12760;SDS011;6444;49.742;6.114;2023-01-29T14:30:16;37.10;;;21.90;;
12760;SDS011;6444;49.742;6.114;2023-01-29T14:32:45;38.33;;;22.67;;
12760;SDS011;6444;49.742;6.114;2023-01-29T14:35:15;39.47;;;22.63;;
12760;SDS011;6444;49.742;6.114;2023-01-29T14:37:37;36.13;;;21.33;;
12760;SDS011;6444;49.742;6.114;2023-01-29T14:42:38;45.83;;;24.97;;
12760;SDS011;6444;49.742;6.114;2023-01-29T14:45:24;42.20;;;22.93;;
12760;SDS011;6444;49.742;6.114;2023-01-29T14:47:58;36.73;;;21.23;;
12760;SDS011;6444;49.742;6.114;2023-01-29T14:52:58;36.50;;;21.97;;
12760;SDS011;6444;49.742;6.114;2023-01-29T14:58:11;39.77;;;22.83;;
12760;SDS011;6444;49.742;6.114;2023-01-29T15:00:38;37.17;;;20.87;;
12760;SDS011;6444;49.742;6.114;2023-01-29T15:03:11;40.40;;;21.97;;
12760;SDS011;6444;49.742;6.114;2023-01-29T15:05:31;42.35;;;29.80;;
12760;SDS011;6444;49.742;6.114;2023-01-29T15:08:02;41.23;;;23.83;;
12760;SDS011;6444;49.742;6.114;2023-01-29T15:13:03;38.70;;;27.73;;
12760;SDS011;6444;49.742;6.114;2023-01-29T15:15:48;41.63;;;23.90;;
12760;SDS011;6444;49.742;6.114;2023-01-29T15:18:18;37.43;;;22.40;;
12760;SDS011;6444;49.742;6.114;2023-01-29T15:20:41;37.80;;;22.17;;
12760;SDS011;6444;49.742;6.114;2023-01-29T15:23:23;39.70;;;22.00;;
12760;SDS011;6444;49.742;6.114;2023-01-29T15:25:58;37.53;;;21.73;;
12760;SDS011;6444;49.742;6.114;2023-01-29T15:28:24;38.10;;;21.20;;
12760;SDS011;6444;49.742;6.114;2023-01-29T15:30:53;36.13;;;20.30;;
12760;SDS011;6444;49.742;6.114;2023-01-29T15:33:20;44.87;;;22.97;;
12760;SDS011;6444;49.742;6.114;2023-01-29T15:35:47;39.73;;;22.47;;
12760;SDS011;6444;49.742;6.114;2023-01-29T15:38:15;38.30;;;22.00;;
12760;SDS011;6444;49.742;6.114;2023-01-29T15:40:41;36.90;;;21.03;;
12760;SDS011;6444;49.742;6.114;2023-01-29T15:43:18;38.60;;;22.07;;
12760;SDS011;6444;49.742;6.114;2023-01-29T15:45:42;42.97;;;21.33;;
12760;SDS011;6444;49.742;6.114;2023-01-29T15:48:13;38.57;;;21.23;;
12760;SDS011;6444;49.742;6.114;2023-01-29T15:50:39;36.87;;;20.77;;
12760;SDS011;6444;49.742;6.114;2023-01-29T15:53:06;44.07;;;24.83;;
12760;SDS011;6444;49.742;6.114;2023-01-29T15:55:32;41.80;;;21.57;;
12760;SDS011;6444;49.742;6.114;2023-01-29T15:57:59;38.17;;;22.03;;
12760;SDS011;6444;49.742;6.114;2023-01-29T16:00:26;37.83;;;20.53;;
12760;SDS011;6444;49.742;6.114;2023-01-29T16:02:52;39.53;;;21.07;;
12760;SDS011;6444;49.742;6.114;2023-01-29T16:05:20;38.87;;;21.47;;
12760;SDS011;6444;49.742;6.114;2023-01-29T16:07:45;38.17;;;20.77;;
12760;SDS011;6444;49.742;6.114;2023-01-29T16:10:45;42.00;;;22.30;;
12760;SDS011;6444;49.742;6.114;2023-01-29T16:12:45;42.13;;;23.23;;
12760;SDS011;6444;49.742;6.114;2023-01-29T16:15:14;46.08;;;29.63;;
12760;SDS011;6444;49.742;6.114;2023-01-29T16:17:38;37.07;;;22.00;;
12760;SDS011;6444;49.742;6.114;2023-01-29T16:20:06;37.43;;;21.30;;
12760;SDS011;6444;49.742;6.114;2023-01-29T16:22:36;35.17;;;21.10;;
12760;SDS011;6444;49.742;6.114;2023-01-29T16:25:05;36.93;;;20.40;;
12760;SDS011;6444;49.742;6.114;2023-01-29T16:27:34;35.33;;;20.67;;
12760;SDS011;6444;49.742;6.114;2023-01-29T16:30:01;39.27;;;21.93;;
12760;SDS011;6444;49.742;6.114;2023-01-29T16:32:28;37.83;;;20.37;;
12760;SDS011;6444;49.742;6.114;2023-01-29T16:34:55;36.13;;;20.30;;
12760;SDS011;6444;49.742;6.114;2023-01-29T16:37:31;38.07;;;20.40;;
12760;SDS011;6444;49.742;6.114;2023-01-29T16:39:49;35.70;;;20.07;;